Sunday, February 25, 2018, 3:22 AM GMT
Back to Local

CYSC, Sherbrooke, Que.

Location: , , Canada Lat: 45.4
Local Time: 3:22 AM GMT ( 3:22 GMT) Lon: -71.883
Time Zone: GMT Elev: 557 ft

Show me the last for .
Show Decoded

2018-02-25 03:00 METAR CYSC 250300Z AUTO VRB02KT 9SM CLR M05/M06 A3029 RMK SLP271 =
2018-02-25 02:00 METAR CYSC 250200Z AUTO 00000KT 9SM CLR M04/M06 A3027 RMK SLP264 =
2018-02-25 01:00 METAR CYSC 250100Z AUTO 27002KT 9SM CLR M03/M06 A3025 RMK PRESRR SLP256 =
2018-02-25 00:00 METAR CYSC 250000Z AUTO 30003KT 9SM FEW028 M02/M05 A3023 RMK SLP249 =
2018-02-24 23:00 METAR CYSC 242300Z AUTO 30004KT 9SM CLR M01/M06 A3021 RMK SLP242 =
2018-02-24 22:00 METAR CYSC 242200Z AUTO 30007KT 9SM BKN032 00/M05 A3018 RMK SLP232 =
2018-02-24 21:00 METAR CYSC 242100Z AUTO 31008KT 9SM OVC034 01/M05 A3016 RMK SLP226 =
2018-02-24 20:00 METAR CYSC 242000Z AUTO 30011G18KT 9SM OVC031 01/M05 A3015 RMK SLP223 =
2018-02-24 19:00 METAR CYSC 241900Z AUTO 29016KT 9SM OVC030 01/M04 A3013 RMK SLP215 =
2018-02-24 18:05 METAR CYSC 241805Z AUTO 28011KT 9SM BKN026 OVC034 01/M03 A3011 RMK SLP208 =
2018-02-24 18:00 METAR CYSC 241800Z AUTO 28011KT 9SM BKN024 OVC034 01/M03 A3011 RMK SLP208 =
2018-02-24 17:24 METAR CYSC 241724Z AUTO 30009G15KT 9SM OVC024 01/M04 A3010 RMK SLP206 =
2018-02-24 17:05 METAR CYSC 241705Z AUTO 31012G20KT 9SM OVC026 01/M04 A3010 RMK SLP203 =
2018-02-24 17:00 METAR CYSC 241700Z AUTO 30011G18KT 9SM OVC024 01/M04 A3010 RMK SLP203 =
2018-02-24 16:51 METAR CYSC 241651Z AUTO 31010G17KT 9SM OVC026 01/M03 A3009 RMK SLP201 =
2018-02-24 16:00 METAR CYSC 241600Z AUTO 29013G18KT 9SM FEW018 BKN024 OVC037 02/M02 A3009 RMK
                 PRESRR SLP200 =
2018-02-24 15:47 METAR CYSC 241547Z AUTO 31013G21KT 9SM SCT016 BKN024 BKN029 OVC035 02/M02 A3007
                 RMK SLP196 =
2018-02-24 15:45 METAR CYSC 241545Z AUTO 30014G21KT 9SM SCT016 BKN029 OVC035 01/M02 A3007 RMK
                 SLP195 =
2018-02-24 15:27 METAR CYSC 241527Z AUTO 29014KT 9SM SCT016 BKN022 OVC033 01/M01 A3006 RMK SLP192
                 =
2018-02-24 15:11 METAR CYSC 241511Z AUTO 28011G16KT 9SM FEW018 SCT027 OVC035 01/M01 A3005 RMK
                 SLP189 =
2018-02-24 15:00 METAR CYSC 241500Z AUTO 28013G19KT 9SM -SN FEW011 SCT018 BKN027 OVC037 01/M01
                 A3005 RMK SLP188 =
2018-02-24 14:58 METAR CYSC 241458Z AUTO 28014G20KT 7SM -SN FEW011 SCT018 BKN023 OVC039 01/M01
                 A3005 RMK SLP189 =
2018-02-24 14:57 METAR CYSC 241457Z AUTO 28012G20KT 6SM RASN FEW011 SCT018 BKN023 OVC039 01/M01
                 A3005 RMK SLP189 =
2018-02-24 14:52 METAR CYSC 241452Z AUTO 29015G22KT 4SM RASN FEW011 BKN016 BKN023 OVC028 01/M01
                 A3006 RMK SLP190 =
2018-02-24 14:46 METAR CYSC 241446Z AUTO 29017G25KT 5SM -RA BR FEW011 BKN018 OVC027 01/M01 A3006
                 RMK SLP190 =
2018-02-24 14:42 METAR CYSC 241442Z AUTO 28017G25KT 7SM -RA FEW009 BKN018 OVC027 02/M00 A3005 RMK
                 SLP189 =
2018-02-24 14:00 METAR CYSC 241400Z AUTO 26013KT 9SM OVC016 02/M00 A3004 RMK SLP183 =
2018-02-24 13:06 METAR CYSC 241306Z AUTO 27012KT 9SM BKN016 OVC055 02/00 A3003 RMK SLP180 =
2018-02-24 13:00 METAR CYSC 241300Z AUTO 27012KT 9SM FEW016 OVC055 02/00 A3002 RMK SLP179 =
2018-02-24 12:16 METAR CYSC 241216Z AUTO 27014G21KT 9SM SCT018 OVC048 02/00 A3001 RMK SLP175 =
2018-02-24 12:00 METAR CYSC 241200Z AUTO 26010G16KT 9SM BKN017 BKN022 OVC048 02/00 A3001 RMK
                 SLP175 =
2018-02-24 11:00 METAR CYSC 241100Z AUTO 25011G18KT 9SM BKN015 BKN024 OVC047 02/01 A2998 RMK
                 SLP165 =
2018-02-24 10:00 METAR CYSC 241000Z AUTO 25010G15KT 9SM BKN013 BKN020 BKN038 OVC045 02/01 A2997
                 RMK SLP160 =
2018-02-24 09:45 METAR CYSC 240945Z AUTO 26009G15KT 9SM SCT009 BKN013 BKN018 OVC038 02/01 A2996
                 RMK SLP157 =
2018-02-24 09:33 METAR CYSC 240933Z AUTO 26010G18KT 9SM SCT006 OVC009 02/01 A2996 RMK SLP156 =
2018-02-24 09:12 METAR CYSC 240912Z AUTO 27014G21KT 9SM OVC006 02/02 A2995 RMK SLP154 =
2018-02-24 09:04 METAR CYSC 240904Z AUTO 27013G24KT 9SM -RA BKN006 OVC010 02/01 A2995 RMK SLP153
                 =
2018-02-24 09:00 METAR CYSC 240900Z AUTO 27016G24KT 9SM -RA OVC008 02/01 A2994 RMK SLP152 =
2018-02-24 08:40 METAR CYSC 240840Z AUTO 27016G23KT 8SM -RA OVC008 02/02 A2994 RMK SLP148 =
2018-02-24 08:38 METAR CYSC 240838Z AUTO 27015G23KT 6SM -RA BR OVC006 02/02 A2994 RMK SLP148 =
2018-02-24 08:18 METAR CYSC 240818Z AUTO 27012G21KT 5SM -RA BR OVC006 03/02 A2994 RMK SLP148 =
2018-02-24 08:00 METAR CYSC 240800Z AUTO 26013G22KT 9SM -RA OVC006 03/02 A2992 RMK SLP144 =
2018-02-24 07:43 METAR CYSC 240743Z AUTO 26011G17KT 9SM -RA OVC006 02/02 A2992 RMK SLP144 =
2018-02-24 07:04 METAR CYSC 240704Z AUTO 24006KT 190V250 9SM BKN004 OVC008 02/02 A2991 RMK SLP140
                 =
2018-02-24 07:01 METAR CYSC 240701Z AUTO 23006KT 6SM -RA BR OVC004 02/02 A2991 RMK SLP139 =
2018-02-24 07:00 METAR CYSC 240700Z AUTO 23006KT 4SM -RA BR OVC004 02/02 A2991 RMK SLP139 =
2018-02-24 06:54 METAR CYSC 240654Z AUTO 21008KT 3SM -RA BR OVC004 02/02 A2991 RMK SLP139 =
2018-02-24 06:29 METAR CYSC 240629Z AUTO 23009KT 2SM -RA BR OVC004 02/01 A2991 RMK SLP141 =
2018-02-24 06:00 METAR CYSC 240600Z AUTO 23009KT 1 3/4SM -RA BR OVC004 02/01 A2991 RMK SLP139 =
2018-02-24 05:50 METAR CYSC 240550Z AUTO 23008KT 1 3/4SM -RA BR OVC004 02/01 A2991 RMK SLP139 =
2018-02-24 05:00 METAR CYSC 240500Z AUTO 22004KT 190V260 2SM -RA BR OVC004 01/01 A2991 RMK SLP138
                 =
2018-02-24 04:58 METAR CYSC 240458Z AUTO 22005KT 190V260 2SM -RA BR OVC004 01/01 A2991 RMK SLP140
                 =
2018-02-24 04:27 METAR CYSC 240427Z AUTO VRB02KT 1 3/4SM -RA BR OVC004 01/01 A2991 RMK SLP143 =
2018-02-24 04:20 METAR CYSC 240420Z AUTO VRB02KT 2 1/2SM -RA BR OVC006 01/00 A2991 RMK SLP142 =
2018-02-24 04:00 METAR CYSC 240400Z AUTO VRB02KT 3SM -RA BR BKN006 OVC009 01/00 A2991 RMK SLP143
                 =
2018-02-24 03:54 METAR CYSC 240354Z AUTO 23003KT 180V310 3SM -RA BR OVC009 01/01 A2992 RMK SLP145
                 =
2018-02-24 03:46 METAR CYSC 240346Z AUTO VRB02KT 5SM BR OVC009 01/00 A2992 RMK SLP146 =
2018-02-24 03:27 METAR CYSC 240327Z AUTO VRB02KT 9SM -RA OVC009 01/00 A2993 RMK SLP149 =

Support USWX by starting your Amazon purchase here.